Chicago Bridge — H9NR — position and weather

sailwx.info

Track history (hours):
 
Tides and Currents Weather Stations Pressure Air Temp Water Temp Dewpoint Dewpoint Depression Visibility Wind Speed Wind Dir Waves Ship Positions

Chicago Bridge

Last reported at 2014-Oct-31 06:31 UTC. Time now 2014-Oct-31 07:07 UTC.
Position N 33°45' W 118°12'.

Length 279 m; draft 12.3 m.

Type: Ship (hazmat cat B). MMSI: 352018000.

Date/timePositionNaut miles runAvg speedWind from/ knotsBaromVisibWave heightAir tempDewpointWater temp
2014-Oct-31 06:31N 33°45' W 118°12'0 0.0
2014-Oct-31 04:22N 33°45' W 118°12'0 0.0
2014-Oct-31 01:22N 33°45' W 118°12'0 0.0
2014-Oct-31 00:25N 33°45' W 118°12'0 0.0
2014-Oct-30 23:28N 33°45' W 118°12'0 0.0
2014-Oct-30 22:31N 33°45' W 118°12'0 0.0
2014-Oct-30 21:31N 33°45' W 118°12'2 2.1
2014-Oct-30 20:33N 33°43' W 118°11'8 7.8
2014-Oct-30 19:33N 33°36' W 118°16'8 8.3
2014-Oct-30 18:33N 33°38' W 118°25'8 8.2
2014-Oct-30 17:33N 33°42' W 118°34'9 8.7
2014-Oct-30 16:33N 33°47' W 118°43'9 8.9
2014-Oct-30 15:33N 33°51' W 118°52'1010.4
2014-Oct-30 14:33N 33°56' W 119°03'1716.9
2014-Oct-30 13:33N 34°04' W 119°21'1818.4
2014-Oct-30 12:33N 34°08' W 119°43'2019.7
2014-Oct-30 11:33N 34°13' W 120°06'2019.7
2014-Oct-30 10:33N 34°19' W 120°29'1817.8
2014-Oct-30 09:33N 34°24' W 120°49'3517.3
2014-Oct-30 07:31N 34°43' W 121°25'1717.8
2014-Oct-30 06:33N 34°55' W 121°41'1818.2
2014-Oct-30 05:33N 35°06' W 121°58'1818.2
2014-Oct-30 04:33N 35°18' W 122°15'1818.4
2014-Oct-30 03:33N 35°29' W 122°33'1818.4
2014-Oct-30 02:33N 35°41' W 122°50'1818.2
2014-Oct-30 01:33N 35°53' W 123°08'9 9.2
2014-Oct-30 00:33N 35°56' W 123°18'10 9.8
2014-Oct-29 23:34N 36°04' W 123°25'1918.7
2014-Oct-29 22:33N 36°15' W 123°44'1918.6
2014-Oct-29 21:34N 36°27' W 124°02'1918.3
2014-Oct-29 20:33N 36°39' W 124°19'2218.4
2014-Oct-29 19:23N 36°52' W 124°40'1718.6
2014-Oct-29 18:26N 37°02' W 124°58'  
Track history (hours):
 
Tides and Currents Weather Stations Pressure Air Temp Water Temp Dewpoint Dewpoint Depression Visibility Wind Speed Wind Dir Waves Ship Positions

Chicago Bridge

Last reported at 2014-Oct-31 06:31 UTC. Time now 2014-Oct-31 07:07 UTC.
Position N 33°45' W 118°12'.

Length 279 m; draft 12.3 m.

Type: Ship (hazmat cat B). MMSI: 352018000.

Date/timePositionNaut miles runAvg speedWind from/ knotsBaromVisibWave heightAir tempDewpointWater temp
2014-Oct-31 06:31N 33°45' W 118°12'0 0.0
2014-Oct-31 04:22N 33°45' W 118°12'0 0.0
2014-Oct-31 01:22N 33°45' W 118°12'0 0.0
2014-Oct-31 00:25N 33°45' W 118°12'0 0.0
2014-Oct-30 23:28N 33°45' W 118°12'0 0.0
2014-Oct-30 22:31N 33°45' W 118°12'0 0.0
2014-Oct-30 21:31N 33°45' W 118°12'2 2.1
2014-Oct-30 20:33N 33°43' W 118°11'8 7.8
2014-Oct-30 19:33N 33°36' W 118°16'8 8.3
2014-Oct-30 18:33N 33°38' W 118°25'8 8.2
2014-Oct-30 17:33N 33°42' W 118°34'9 8.7
2014-Oct-30 16:33N 33°47' W 118°43'9 8.9
2014-Oct-30 15:33N 33°51' W 118°52'1010.4
2014-Oct-30 14:33N 33°56' W 119°03'1716.9
2014-Oct-30 13:33N 34°04' W 119°21'1818.4
2014-Oct-30 12:33N 34°08' W 119°43'2019.7
2014-Oct-30 11:33N 34°13' W 120°06'2019.7
2014-Oct-30 10:33N 34°19' W 120°29'1817.8
2014-Oct-30 09:33N 34°24' W 120°49'3517.3
2014-Oct-30 07:31N 34°43' W 121°25'1717.8
2014-Oct-30 06:33N 34°55' W 121°41'1818.2
2014-Oct-30 05:33N 35°06' W 121°58'1818.2
2014-Oct-30 04:33N 35°18' W 122°15'1818.4
2014-Oct-30 03:33N 35°29' W 122°33'1818.4
2014-Oct-30 02:33N 35°41' W 122°50'1818.2
2014-Oct-30 01:33N 35°53' W 123°08'9 9.2
2014-Oct-30 00:33N 35°56' W 123°18'10 9.8
2014-Oct-29 23:34N 36°04' W 123°25'1918.7
2014-Oct-29 22:33N 36°15' W 123°44'1918.6
2014-Oct-29 21:34N 36°27' W 124°02'1918.3
2014-Oct-29 20:33N 36°39' W 124°19'2218.4
2014-Oct-29 19:23N 36°52' W 124°40'1718.6
2014-Oct-29 18:26N 37°02' W 124°58'  

Dump ship's entire track history